createdAt,value
2023-05-09T00:00:32.368Z,2.80
2023-05-09T00:04:51.270Z,2.70
2023-05-09T00:08:56.377Z,2.63
2023-05-09T00:12:59.309Z,2.65
2023-05-09T00:17:01.806Z,2.64
2023-05-09T00:21:03.998Z,2.60
2023-05-09T00:25:07.383Z,2.50
2023-05-09T00:29:09.306Z,2.45
2023-05-09T00:33:11.413Z,2.44
2023-05-09T00:37:13.309Z,2.43
2023-05-09T00:41:15.307Z,2.47
2023-05-09T00:45:18.291Z,2.50
2023-05-09T00:49:20.528Z,2.46
2023-05-09T00:53:29.552Z,2.30
2023-05-09T00:57:31.424Z,2.11
2023-05-09T01:01:33.288Z,1.91
2023-05-09T01:05:49.509Z,1.79
2023-05-09T01:09:55.618Z,1.66
2023-05-09T01:14:15.520Z,1.63
2023-05-09T01:18:39.111Z,1.68
2023-05-09T01:23:15.821Z,1.75
2023-05-09T01:27:59.286Z,1.77
2023-05-09T01:32:15.982Z,1.74
2023-05-09T01:36:20.946Z,1.73
2023-05-09T01:40:43.035Z,1.69
2023-05-09T01:44:55.771Z,1.63
2023-05-09T01:48:59.253Z,1.61
2023-05-09T01:53:03.080Z,1.61
2023-05-09T01:57:16.556Z,1.60
2023-05-09T02:01:23.696Z,1.61
2023-05-09T02:05:36.974Z,1.59
2023-05-09T02:09:44.257Z,1.52
2023-05-09T02:13:46.234Z,1.35
2023-05-09T02:17:48.346Z,1.25
2023-05-09T02:21:50.314Z,1.26
2023-05-09T02:25:53.748Z,1.30
2023-05-09T02:30:07.534Z,1.33
2023-05-09T02:34:11.325Z,1.33
2023-05-09T02:38:14.367Z,1.24
2023-05-09T02:42:21.634Z,1.15
2023-05-09T02:46:23.624Z,1.06
2023-05-09T02:50:27.824Z,0.98
2023-05-09T02:54:29.989Z,0.94
2023-05-09T02:58:31.871Z,1.00
2023-05-09T03:02:33.938Z,1.10
2023-05-09T03:06:36.075Z,1.19
2023-05-09T03:10:38.024Z,1.26
2023-05-09T03:14:40.364Z,1.27
2023-05-09T03:18:42.800Z,1.26
2023-05-09T03:22:44.838Z,1.28
2023-05-09T03:26:46.932Z,1.31
2023-05-09T03:30:50.064Z,1.34
2023-05-09T03:34:54.919Z,1.41
2023-05-09T03:38:57.318Z,1.49
2023-05-09T03:42:59.581Z,1.50
2023-05-09T03:47:01.808Z,1.58
2023-05-09T03:51:09.254Z,1.63
2023-05-09T03:55:18.779Z,1.71
2023-05-09T03:59:20.798Z,1.92
2023-05-09T04:03:34.972Z,2.28
2023-05-09T04:07:38.834Z,2.85
2023-05-09T04:11:40.964Z,3.43
2023-05-09T04:15:46.460Z,4.06
2023-05-09T04:19:48.809Z,4.71
2023-05-09T04:23:51.319Z,5.36
2023-05-09T04:28:00.123Z,5.93
2023-05-09T04:32:07.994Z,6.36
2023-05-09T04:36:10.822Z,6.75
2023-05-09T04:40:13.354Z,7.17
2023-05-09T04:44:22.976Z,7.65
2023-05-09T04:48:25.092Z,8.11
2023-05-09T04:52:27.427Z,8.53
2023-05-09T04:56:29.797Z,8.93
2023-05-09T05:00:37.387Z,9.36
2023-05-09T05:04:39.836Z,9.86
2023-05-09T05:08:42.738Z,10.34
2023-05-09T05:12:46.061Z,10.70
2023-05-09T05:16:50.592Z,10.90
2023-05-09T05:20:55.262Z,10.91
2023-05-09T05:24:58.902Z,10.88
2023-05-09T05:29:01.642Z,10.84
2023-05-09T05:33:04.156Z,10.77
2023-05-09T05:37:06.451Z,10.77
2023-05-09T05:41:12.300Z,10.81
2023-05-09T05:45:15.565Z,10.89
2023-05-09T05:49:21.122Z,10.97
2023-05-09T05:53:23.125Z,11.06
2023-05-09T05:57:27.429Z,11.14
2023-05-09T06:01:29.984Z,11.17
2023-05-09T06:05:34.094Z,11.20
2023-05-09T06:09:36.225Z,11.26
2023-05-09T06:13:38.572Z,11.36
2023-05-09T06:17:41.122Z,11.45
2023-05-09T06:21:44.177Z,11.57
2023-05-09T06:25:46.031Z,11.71
2023-05-09T06:29:48.443Z,11.84
2023-05-09T06:33:50.590Z,11.97
2023-05-09T06:37:52.653Z,12.09
2023-05-09T06:41:55.229Z,12.19
2023-05-09T06:46:03.944Z,12.28
2023-05-09T06:50:06.550Z,12.42
2023-05-09T06:54:08.674Z,12.53
2023-05-09T06:58:11.892Z,12.60
2023-05-09T07:02:14.864Z,12.72
2023-05-09T07:06:17.151Z,12.86
2023-05-09T07:10:19.162Z,13.01
2023-05-09T07:14:21.087Z,13.22
2023-05-09T07:18:23.057Z,13.46
2023-05-09T07:22:25.022Z,13.68
2023-05-09T07:26:26.929Z,13.94
2023-05-09T07:30:28.841Z,14.20
2023-05-09T07:34:30.794Z,14.40
2023-05-09T07:38:32.640Z,14.65
2023-05-09T07:42:34.618Z,14.84
2023-05-09T07:46:38.074Z,15.07
2023-05-09T07:50:39.950Z,15.27
2023-05-09T07:54:41.832Z,15.49
2023-05-09T07:58:43.686Z,15.72
2023-05-09T08:02:46.086Z,15.79
2023-05-09T08:06:48.546Z,15.91
2023-05-09T08:10:50.469Z,15.99
2023-05-09T08:14:52.352Z,15.98
2023-05-09T08:18:54.512Z,16.11
2023-05-09T08:22:56.585Z,16.34
2023-05-09T08:26:58.468Z,16.50
2023-05-09T08:31:00.552Z,16.50
2023-05-09T08:35:02.508Z,16.52
2023-05-09T08:39:04.454Z,16.73
2023-05-09T08:43:07.387Z,16.85
2023-05-09T08:47:10.189Z,16.92
2023-05-09T08:51:13.352Z,17.03
2023-05-09T08:55:16.013Z,17.06
2023-05-09T08:59:19.198Z,17.09
2023-05-09T09:03:21.772Z,17.13
2023-05-09T09:07:26.796Z,17.24
2023-05-09T09:11:30.249Z,17.38
2023-05-09T09:15:37.149Z,17.56
2023-05-09T09:19:43.106Z,17.56
2023-05-09T09:23:49.911Z,17.57
2023-05-09T09:27:51.816Z,17.67
2023-05-09T09:31:56.179Z,17.73
2023-05-09T09:35:59.248Z,17.76
2023-05-09T09:40:02.504Z,17.83
2023-05-09T09:44:11.623Z,17.84
2023-05-09T09:48:13.652Z,17.81
2023-05-09T09:52:26.626Z,17.87
2023-05-09T09:56:42.698Z,18.01
2023-05-09T10:00:45.716Z,17.92
2023-05-09T10:04:47.865Z,17.90
2023-05-09T10:08:49.965Z,18.04
2023-05-09T10:12:55.908Z,18.12
2023-05-09T10:16:58.797Z,18.20
2023-05-09T10:21:02.836Z,18.31
2023-05-09T10:25:12.419Z,18.38
2023-05-09T10:29:22.255Z,18.43
2023-05-09T10:33:30.774Z,18.39
2023-05-09T10:37:33.701Z,18.38
2023-05-09T10:41:37.197Z,18.41
2023-05-09T10:45:40.411Z,18.45
2023-05-09T10:49:44.370Z,18.50
2023-05-09T10:53:50.592Z,18.48
2023-05-09T10:57:54.908Z,18.53
2023-05-09T11:02:00.649Z,18.42
2023-05-09T11:06:02.698Z,18.47
2023-05-09T11:10:19.137Z,18.51
2023-05-09T11:14:31.894Z,18.56
2023-05-09T11:18:33.786Z,18.58
2023-05-09T11:22:44.108Z,18.60
2023-05-09T11:26:47.982Z,18.58
2023-05-09T11:30:50.821Z,18.51
2023-05-09T11:35:05.943Z,18.54
2023-05-09T11:39:10.160Z,18.51
2023-05-09T11:43:12.510Z,18.58
2023-05-09T11:47:16.399Z,18.69
2023-05-09T11:51:18.966Z,18.79
2023-05-09T11:55:22.254Z,18.78
2023-05-09T11:59:24.202Z,18.77
2023-05-09T12:03:26.999Z,18.84
2023-05-09T12:07:30.254Z,18.81
2023-05-09T12:11:32.272Z,18.82
2023-05-09T12:15:38.386Z,18.92
2023-05-09T12:19:40.361Z,18.97
2023-05-09T12:23:42.346Z,19.04
2023-05-09T12:27:44.345Z,19.16
2023-05-09T12:31:46.656Z,19.35
2023-05-09T12:36:10.627Z,19.46
2023-05-09T12:40:14.929Z,19.38
2023-05-09T12:44:24.545Z,19.38
2023-05-09T12:48:26.980Z,19.43
2023-05-09T12:52:41.757Z,19.45
2023-05-09T12:56:56.356Z,19.36
2023-05-09T13:00:59.334Z,19.36
2023-05-09T13:05:05.083Z,19.38
2023-05-09T13:09:07.712Z,19.52
2023-05-09T13:13:16.048Z,19.52
2023-05-09T13:17:17.960Z,19.60
2023-05-09T13:21:20.549Z,19.80
2023-05-09T13:25:22.542Z,19.92
2023-05-09T13:29:24.474Z,19.89
2023-05-09T13:33:27.142Z,19.83
2023-05-09T13:37:29.088Z,19.94
2023-05-09T13:41:33.030Z,19.94
2023-05-09T13:45:34.892Z,19.87
2023-05-09T13:49:37.874Z,19.80
2023-05-09T13:53:40.063Z,19.68
2023-05-09T13:57:42.745Z,19.67
2023-05-09T14:01:44.955Z,19.75
2023-05-09T14:05:48.029Z,19.72
2023-05-09T14:09:53.987Z,19.63
2023-05-09T14:14:01.057Z,19.43
2023-05-09T14:18:03.068Z,19.40
2023-05-09T14:22:05.045Z,19.46
2023-05-09T14:26:07.842Z,19.50
2023-05-09T14:30:10.199Z,19.36
2023-05-09T14:34:12.137Z,19.24
2023-05-09T14:38:14.142Z,19.16
2023-05-09T14:42:16.243Z,19.06
2023-05-09T14:46:18.326Z,18.91
2023-05-09T14:50:21.350Z,18.83
2023-05-09T14:54:23.656Z,18.74
2023-05-09T14:58:25.877Z,18.71
2023-05-09T15:02:27.816Z,18.72
2023-05-09T15:06:30.475Z,18.69
2023-05-09T15:10:32.917Z,18.63
2023-05-09T15:14:34.825Z,18.59
2023-05-09T15:18:36.721Z,18.66
2023-05-09T15:22:39.169Z,18.66
2023-05-09T15:26:41.113Z,18.59
2023-05-09T15:30:44.853Z,18.57
2023-05-09T15:34:47.108Z,18.52
2023-05-09T15:38:49.762Z,18.55
2023-05-09T15:42:51.918Z,18.58
2023-05-09T15:46:54.959Z,18.54
2023-05-09T15:50:56.885Z,18.49
2023-05-09T15:54:59.598Z,18.48
2023-05-09T15:59:02.229Z,18.46
2023-05-09T16:03:04.227Z,18.37
2023-05-09T16:07:06.325Z,18.34
2023-05-09T16:11:09.817Z,18.27
2023-05-09T16:15:11.879Z,18.11
2023-05-09T16:19:13.812Z,17.98
2023-05-09T16:23:15.807Z,17.82
2023-05-09T16:27:17.659Z,17.65
2023-05-09T16:31:20.344Z,17.49
2023-05-09T16:35:22.579Z,17.35
2023-05-09T16:39:27.758Z,17.19
2023-05-09T16:43:30.311Z,17.01
2023-05-09T16:47:32.365Z,16.85
2023-05-09T16:51:35.624Z,16.70
2023-05-09T16:55:37.782Z,16.63
2023-05-09T16:59:40.095Z,16.54
2023-05-09T17:03:42.739Z,16.40
2023-05-09T17:07:44.833Z,16.29
2023-05-09T17:11:47.788Z,16.18
2023-05-09T17:15:52.224Z,16.06
2023-05-09T17:19:54.220Z,15.86
2023-05-09T17:23:56.210Z,15.67
2023-05-09T17:27:58.286Z,15.47
2023-05-09T17:32:00.988Z,15.29
2023-05-09T17:36:03.239Z,15.10
2023-05-09T17:40:07.578Z,14.91
2023-05-09T17:44:10.703Z,14.72
2023-05-09T17:48:13.115Z,14.53
2023-05-09T17:52:15.072Z,14.34
2023-05-09T17:56:16.989Z,14.16
2023-05-09T18:00:19.225Z,13.97
2023-05-09T18:04:21.405Z,13.77
2023-05-09T18:08:23.312Z,13.59
2023-05-09T18:12:28.380Z,13.44
2023-05-09T18:16:30.427Z,13.26
2023-05-09T18:20:33.293Z,13.10
2023-05-09T18:24:36.256Z,12.96
2023-05-09T18:28:40.923Z,12.82
2023-05-09T18:32:42.874Z,12.68
2023-05-09T18:36:44.804Z,12.55
2023-05-09T18:40:47.769Z,12.42
2023-05-09T18:44:49.932Z,12.29
2023-05-09T18:48:52.232Z,12.18
2023-05-09T18:52:54.409Z,12.07
2023-05-09T18:56:58.063Z,11.92
2023-05-09T19:01:01.225Z,11.72
2023-05-09T19:05:07.608Z,11.44
2023-05-09T19:09:09.439Z,11.15
2023-05-09T19:13:13.997Z,10.89
2023-05-09T19:17:17.441Z,10.62
2023-05-09T19:25:39.438Z,10.07
2023-05-09T19:29:41.864Z,9.78
2023-05-09T19:33:44.967Z,9.57
2023-05-09T19:37:46.971Z,9.40
2023-05-09T19:41:49.020Z,9.26
2023-05-09T19:45:51.331Z,9.21
2023-05-09T19:49:53.439Z,9.13
2023-05-09T19:53:55.697Z,9.02
2023-05-09T19:57:57.609Z,8.94
2023-05-09T20:01:59.488Z,8.91
2023-05-09T20:10:21.240Z,8.82
2023-05-09T20:14:23.300Z,8.71
2023-05-09T20:18:26.503Z,8.51
2023-05-09T20:22:28.621Z,8.31
2023-05-09T20:26:30.510Z,8.17
2023-05-09T20:30:32.890Z,8.08
2023-05-09T20:34:34.854Z,8.01
2023-05-09T20:38:36.694Z,7.99
2023-05-09T20:42:38.756Z,7.98
2023-05-09T20:46:41.141Z,7.95
2023-05-09T20:50:43.382Z,7.89
2023-05-09T20:54:48.395Z,7.81
2023-05-09T20:58:50.254Z,7.74
2023-05-09T21:02:57.613Z,7.74
2023-05-09T21:07:00.563Z,7.74
2023-05-09T21:11:02.427Z,7.75
2023-05-09T21:15:04.898Z,7.73
2023-05-09T21:19:08.264Z,7.68
2023-05-09T21:23:10.213Z,7.62
2023-05-09T21:27:12.105Z,7.57
2023-05-09T21:31:14.323Z,7.44
2023-05-09T21:35:16.496Z,7.29
2023-05-09T21:39:18.319Z,7.20
2023-05-09T21:43:20.366Z,7.15
2023-05-09T21:47:22.381Z,7.12
2023-05-09T21:51:24.511Z,7.13
2023-05-09T21:55:27.012Z,7.16
2023-05-09T21:59:28.825Z,7.21
2023-05-09T22:03:30.951Z,7.25
2023-05-09T22:07:32.964Z,7.25
2023-05-09T22:11:34.933Z,7.23
2023-05-09T22:15:36.779Z,7.19
2023-05-09T22:19:38.669Z,7.16
2023-05-09T22:23:40.500Z,7.15
2023-05-09T22:27:42.400Z,7.14
2023-05-09T22:31:44.372Z,7.11
2023-05-09T22:35:46.580Z,7.08
2023-05-09T22:39:48.464Z,7.06
2023-05-09T22:43:50.471Z,7.07
2023-05-09T22:47:52.373Z,7.10
2023-05-09T22:51:54.312Z,7.14
2023-05-09T22:55:56.766Z,7.21
2023-05-09T22:59:58.662Z,7.29
2023-05-09T23:04:00.647Z,7.35
2023-05-09T23:08:02.730Z,7.40
2023-05-09T23:12:05.085Z,7.44
2023-05-09T23:16:07.020Z,7.46
2023-05-09T23:20:09.325Z,7.45
2023-05-09T23:24:11.181Z,7.38
2023-05-09T23:28:13.046Z,7.28
2023-05-09T23:32:14.990Z,7.17
2023-05-09T23:36:16.845Z,7.05
2023-05-09T23:40:19.091Z,6.94
2023-05-09T23:44:20.989Z,6.86
2023-05-09T23:48:23.405Z,6.80
2023-05-09T23:52:25.453Z,6.74
2023-05-09T23:56:27.362Z,6.66
